sensor_id;sensor_type;location;lat;lon;timestamp;pressure;altitude;pressure_sealevel;temperature;humidity
7200;BME280;3641;49.082;8.200;2023-02-18T00:00:58;101312.41;;;11.24;90.02
7200;BME280;3641;49.082;8.200;2023-02-18T00:03:25;101306.44;;;11.21;89.62
7200;BME280;3641;49.082;8.200;2023-02-18T00:05:52;101308.50;;;11.27;89.71
7200;BME280;3641;49.082;8.200;2023-02-18T00:08:20;101316.34;;;11.22;90.17
7200;BME280;3641;49.082;8.200;2023-02-18T00:10:47;101308.16;;;11.22;89.67
7200;BME280;3641;49.082;8.200;2023-02-18T00:13:13;101320.78;;;11.23;89.91
7200;BME280;3641;49.082;8.200;2023-02-18T00:15:41;101304.69;;;11.20;90.70
7200;BME280;3641;49.082;8.200;2023-02-18T00:18:08;101308.81;;;11.24;90.60
7200;BME280;3641;49.082;8.200;2023-02-18T00:20:37;101299.63;;;11.25;90.12
7200;BME280;3641;49.082;8.200;2023-02-18T00:23:04;101309.16;;;11.21;90.50
7200;BME280;3641;49.082;8.200;2023-02-18T00:25:30;101297.38;;;11.20;90.21
7200;BME280;3641;49.082;8.200;2023-02-18T00:27:56;101305.09;;;11.25;90.22
7200;BME280;3641;49.082;8.200;2023-02-18T00:30:23;101305.75;;;11.19;90.69
7200;BME280;3641;49.082;8.200;2023-02-18T00:32:51;101305.03;;;11.17;91.33
7200;BME280;3641;49.082;8.200;2023-02-18T00:35:17;101298.91;;;11.23;90.80
7200;BME280;3641;49.082;8.200;2023-02-18T00:37:44;101301.31;;;11.26;90.39
7200;BME280;3641;49.082;8.200;2023-02-18T00:40:11;101295.81;;;11.18;91.34
7200;BME280;3641;49.082;8.200;2023-02-18T00:42:37;101299.25;;;11.20;91.38
7200;BME280;3641;49.082;8.200;2023-02-18T00:45:04;101288.13;;;11.21;90.88
7200;BME280;3641;49.082;8.200;2023-02-18T00:47:31;101278.75;;;11.24;90.49
7200;BME280;3641;49.082;8.200;2023-02-18T00:49:59;101275.34;;;11.14;90.80
7200;BME280;3641;49.082;8.200;2023-02-18T00:52:25;101281.31;;;11.17;90.58
7200;BME280;3641;49.082;8.200;2023-02-18T00:54:52;101283.88;;;11.19;91.21
7200;BME280;3641;49.082;8.200;2023-02-18T00:57:18;101283.16;;;11.17;91.57
7200;BME280;3641;49.082;8.200;2023-02-18T00:59:45;101267.47;;;11.19;90.85
7200;BME280;3641;49.082;8.200;2023-02-18T01:02:11;101289.19;;;11.20;90.77
7200;BME280;3641;49.082;8.200;2023-02-18T01:04:38;101291.19;;;11.18;90.80
7200;BME280;3641;49.082;8.200;2023-02-18T01:07:05;101284.91;;;11.18;90.83
7200;BME280;3641;49.082;8.200;2023-02-18T01:09:34;101281.66;;;11.22;90.81
7200;BME280;3641;49.082;8.200;2023-02-18T01:12:01;101280.81;;;11.22;90.47
7200;BME280;3641;49.082;8.200;2023-02-18T01:14:28;101285.25;;;11.23;89.74
7200;BME280;3641;49.082;8.200;2023-02-18T01:16:54;101300.97;;;11.21;90.02
7200;BME280;3641;49.082;8.200;2023-02-18T01:19:21;101297.72;;;11.25;90.03
7200;BME280;3641;49.082;8.200;2023-02-18T01:21:47;101288.19;;;11.30;89.79
7200;BME280;3641;49.082;8.200;2023-02-18T01:24:15;101274.31;;;11.23;89.67
7200;BME280;3641;49.082;8.200;2023-02-18T01:26:41;101274.53;;;11.30;89.54
7200;BME280;3641;49.082;8.200;2023-02-18T01:29:08;101266.09;;;11.23;89.78
7200;BME280;3641;49.082;8.200;2023-02-18T01:31:34;101265.94;;;11.24;90.19
7200;BME280;3641;49.082;8.200;2023-02-18T01:34:01;101265.94;;;11.24;89.78
7200;BME280;3641;49.082;8.200;2023-02-18T01:36:27;101265.28;;;11.22;90.11
7200;BME280;3641;49.082;8.200;2023-02-18T01:38:54;101266.44;;;11.20;90.24
7200;BME280;3641;49.082;8.200;2023-02-18T01:41:21;101267.34;;;11.29;89.49
7200;BME280;3641;49.082;8.200;2023-02-18T01:44:12;101278.25;;;11.20;90.33
7200;BME280;3641;49.082;8.200;2023-02-18T01:46:38;101276.03;;;11.24;89.98
7200;BME280;3641;49.082;8.200;2023-02-18T01:49:05;101277.59;;;11.26;89.66
7200;BME280;3641;49.082;8.200;2023-02-18T01:51:35;101287.28;;;11.21;90.21
7200;BME280;3641;49.082;8.200;2023-02-18T01:54:05;101283.34;;;11.15;90.69
7200;BME280;3641;49.082;8.200;2023-02-18T01:56:38;101282.84;;;11.20;90.35
7200;BME280;3641;49.082;8.200;2023-02-18T01:59:07;101280.81;;;11.22;90.69
7200;BME280;3641;49.082;8.200;2023-02-18T02:01:35;101281.47;;;11.16;90.38
7200;BME280;3641;49.082;8.200;2023-02-18T02:04:01;101267.66;;;11.17;91.03
7200;BME280;3641;49.082;8.200;2023-02-18T02:06:28;101259.63;;;11.16;90.93
7200;BME280;3641;49.082;8.200;2023-02-18T02:08:57;101256.22;;;11.22;90.56
7200;BME280;3641;49.082;8.200;2023-02-18T02:11:47;101255.88;;;11.25;90.26
7200;BME280;3641;49.082;8.200;2023-02-18T02:14:25;101261.84;;;11.20;90.64
7200;BME280;3641;49.082;8.200;2023-02-18T02:17:01;101266.44;;;11.20;90.37
7200;BME280;3641;49.082;8.200;2023-02-18T02:19:53;101257.06;;;11.14;90.32
7200;BME280;3641;49.082;8.200;2023-02-18T02:22:44;101264.75;;;11.19;90.23
7200;BME280;3641;49.082;8.200;2023-02-18T02:25:36;101261.31;;;11.17;90.81
7200;BME280;3641;49.082;8.200;2023-02-18T02:28:29;101253.81;;;11.11;90.23
7200;BME280;3641;49.082;8.200;2023-02-18T02:31:27;101256.72;;;11.17;90.17
7200;BME280;3641;49.082;8.200;2023-02-18T02:37:03;101255.16;;;11.15;89.73
7200;BME280;3641;49.082;8.200;2023-02-18T02:39:37;101248.88;;;11.22;89.61
7200;BME280;3641;49.082;8.200;2023-02-18T02:42:16;101232.63;;;11.21;89.61
7200;BME280;3641;49.082;8.200;2023-02-18T02:44:48;101242.22;;;11.25;89.00
7200;BME280;3641;49.082;8.200;2023-02-18T02:47:25;101241.50;;;11.23;89.35
7200;BME280;3641;49.082;8.200;2023-02-18T02:49:59;101237.59;;;11.25;88.31
7200;BME280;3641;49.082;8.200;2023-02-18T02:52:29;101227.00;;;11.31;89.13
7200;BME280;3641;49.082;8.200;2023-02-18T02:54:57;101228.06;;;11.30;88.90
7200;BME280;3641;49.082;8.200;2023-02-18T02:57:45;101231.97;;;11.27;88.61
7200;BME280;3641;49.082;8.200;2023-02-18T03:00:13;101229.75;;;11.22;88.89
7200;BME280;3641;49.082;8.200;2023-02-18T03:02:57;101231.09;;;11.18;89.31
7200;BME280;3641;49.082;8.200;2023-02-18T03:05:36;101220.84;;;11.20;88.88
7200;BME280;3641;49.082;8.200;2023-02-18T03:08:14;101217.25;;;11.20;88.91
7200;BME280;3641;49.082;8.200;2023-02-18T03:11:03;101218.63;;;11.16;88.86
7200;BME280;3641;49.082;8.200;2023-02-18T03:13:48;101216.06;;;11.14;88.90
7200;BME280;3641;49.082;8.200;2023-02-18T03:16:24;101215.03;;;11.15;89.47
7200;BME280;3641;49.082;8.200;2023-02-18T03:18:57;101209.56;;;11.15;89.01
7200;BME280;3641;49.082;8.200;2023-02-18T03:21:28;101206.13;;;11.13;89.40
7200;BME280;3641;49.082;8.200;2023-02-18T03:24:00;101206.66;;;11.17;89.71
7200;BME280;3641;49.082;8.200;2023-02-18T03:26:29;101215.91;;;11.16;89.51
7200;BME280;3641;49.082;8.200;2023-02-18T03:29:01;101218.97;;;11.13;89.27
7200;BME280;3641;49.082;8.200;2023-02-18T03:31:29;101203.25;;;11.15;89.91
7200;BME280;3641;49.082;8.200;2023-02-18T03:34:00;101201.50;;;11.05;89.74
7200;BME280;3641;49.082;8.200;2023-02-18T03:36:30;101204.44;;;11.12;89.89
7200;BME280;3641;49.082;8.200;2023-02-18T03:38:59;101200.84;;;11.03;90.43
7200;BME280;3641;49.082;8.200;2023-02-18T03:41:26;101187.69;;;11.07;89.67
7200;BME280;3641;49.082;8.200;2023-02-18T03:43:54;101190.75;;;11.04;90.63
7200;BME280;3641;49.082;8.200;2023-02-18T03:46:24;101180.38;;;11.07;90.36
7200;BME280;3641;49.082;8.200;2023-02-18T03:48:51;101166.53;;;11.09;89.78
7200;BME280;3641;49.082;8.200;2023-02-18T03:51:18;101175.41;;;11.11;89.81
7200;BME280;3641;49.082;8.200;2023-02-18T03:53:46;101181.53;;;11.05;90.82
7200;BME280;3641;49.082;8.200;2023-02-18T03:56:13;101176.75;;;11.07;90.31
7200;BME280;3641;49.082;8.200;2023-02-18T03:58:39;101183.75;;;11.01;90.84
7200;BME280;3641;49.082;8.200;2023-02-18T04:01:06;101194.69;;;11.09;90.31
7200;BME280;3641;49.082;8.200;2023-02-18T04:03:32;101189.06;;;11.11;90.33
7200;BME280;3641;49.082;8.200;2023-02-18T04:05:59;101186.00;;;11.14;90.19
7200;BME280;3641;49.082;8.200;2023-02-18T04:08:25;101194.69;;;11.09;90.15
7200;BME280;3641;49.082;8.200;2023-02-18T04:10:53;101187.50;;;11.08;90.84
7200;BME280;3641;49.082;8.200;2023-02-18T04:13:21;101197.78;;;11.15;90.45
7200;BME280;3641;49.082;8.200;2023-02-18T04:15:48;101196.75;;;11.07;90.54
7200;BME280;3641;49.082;8.200;2023-02-18T04:18:15;101196.09;;;11.14;90.66
7200;BME280;3641;49.082;8.200;2023-02-18T04:20:42;101189.25;;;11.09;90.89
7200;BME280;3641;49.082;8.200;2023-02-18T04:23:09;101193.16;;;11.07;90.72
7200;BME280;3641;49.082;8.200;2023-02-18T04:25:36;101194.38;;;11.13;90.34
7200;BME280;3641;49.082;8.200;2023-02-18T04:28:04;101186.34;;;11.11;91.52
7200;BME280;3641;49.082;8.200;2023-02-18T04:30:31;101188.91;;;11.13;90.81
7200;BME280;3641;49.082;8.200;2023-02-18T04:32:58;101193.69;;;11.19;89.85
7200;BME280;3641;49.082;8.200;2023-02-18T04:35:24;101180.03;;;11.19;89.96
7200;BME280;3641;49.082;8.200;2023-02-18T04:37:50;101184.78;;;11.17;90.42
7200;BME280;3641;49.082;8.200;2023-02-18T04:40:17;101178.13;;;11.11;91.21
7200;BME280;3641;49.082;8.200;2023-02-18T04:42:43;101183.44;;;11.13;91.11
7200;BME280;3641;49.082;8.200;2023-02-18T04:45:11;101175.91;;;11.06;91.29
7200;BME280;3641;49.082;8.200;2023-02-18T04:47:38;101179.69;;;11.14;90.46
7200;BME280;3641;49.082;8.200;2023-02-18T04:50:05;101180.88;;;11.11;90.84
7200;BME280;3641;49.082;8.200;2023-02-18T04:52:32;101177.47;;;11.09;91.79
7200;BME280;3641;49.082;8.200;2023-02-18T04:54:59;101181.03;;;11.01;91.49
7200;BME280;3641;49.082;8.200;2023-02-18T04:57:25;101183.75;;;11.01;91.60
7200;BME280;3641;49.082;8.200;2023-02-18T04:59:51;101182.88;;;10.93;91.73
7200;BME280;3641;49.082;8.200;2023-02-18T05:02:19;101179.63;;;10.97;91.57
7200;BME280;3641;49.082;8.200;2023-02-18T05:04:46;101183.50;;;10.78;91.97
7200;BME280;3641;49.082;8.200;2023-02-18T05:07:12;101180.31;;;10.91;90.72
7200;BME280;3641;49.082;8.200;2023-02-18T05:09:39;101177.56;;;10.83;90.82
7200;BME280;3641;49.082;8.200;2023-02-18T05:12:06;101177.03;;;10.79;90.87
7200;BME280;3641;49.082;8.200;2023-02-18T05:14:32;101175.97;;;10.72;90.93
7200;BME280;3641;49.082;8.200;2023-02-18T05:16:59;101169.19;;;10.84;90.71
7200;BME280;3641;49.082;8.200;2023-02-18T05:19:27;101171.22;;;10.66;90.87
7200;BME280;3641;49.082;8.200;2023-02-18T05:21:53;101174.44;;;10.61;90.84
7200;BME280;3641;49.082;8.200;2023-02-18T05:24:19;101165.91;;;10.64;90.61
7200;BME280;3641;49.082;8.200;2023-02-18T05:26:46;101162.13;;;10.57;90.37
7200;BME280;3641;49.082;8.200;2023-02-18T05:29:13;101157.75;;;10.72;90.15
7200;BME280;3641;49.082;8.200;2023-02-18T05:31:39;101173.22;;;10.64;89.99
7200;BME280;3641;49.082;8.200;2023-02-18T05:34:06;101157.19;;;10.69;90.40
7200;BME280;3641;49.082;8.200;2023-02-18T05:36:34;101156.00;;;10.63;89.72
7200;BME280;3641;49.082;8.200;2023-02-18T05:39:00;101156.00;;;10.63;90.23
7200;BME280;3641;49.082;8.200;2023-02-18T05:41:27;101147.47;;;10.66;90.27
7200;BME280;3641;49.082;8.200;2023-02-18T05:43:53;101145.78;;;10.73;89.45
7200;BME280;3641;49.082;8.200;2023-02-18T05:46:37;101148.50;;;10.65;89.61
7200;BME280;3641;49.082;8.200;2023-02-18T05:49:03;101154.47;;;10.69;89.89
7200;BME280;3641;49.082;8.200;2023-02-18T05:51:30;101158.56;;;10.65;89.96
7200;BME280;3641;49.082;8.200;2023-02-18T05:53:58;101158.44;;;10.75;89.30
7200;BME280;3641;49.082;8.200;2023-02-18T05:56:24;101157.72;;;10.64;90.01
7200;BME280;3641;49.082;8.200;2023-02-18T05:58:51;101165.06;;;10.72;89.85
7200;BME280;3641;49.082;8.200;2023-02-18T06:01:17;101156.03;;;10.71;89.65
7200;BME280;3641;49.082;8.200;2023-02-18T06:03:44;101159.75;;;10.62;89.66
7200;BME280;3641;49.082;8.200;2023-02-18T06:06:10;101165.69;;;10.58;89.78
7200;BME280;3641;49.082;8.200;2023-02-18T06:08:37;101161.63;;;10.62;90.01
7200;BME280;3641;49.082;8.200;2023-02-18T06:11:04;101160.47;;;10.72;89.10
7200;BME280;3641;49.082;8.200;2023-02-18T06:13:31;101159.44;;;10.73;89.00
7200;BME280;3641;49.082;8.200;2023-02-18T06:15:57;101157.75;;;10.72;89.29
7200;BME280;3641;49.082;8.200;2023-02-18T06:18:24;101161.47;;;10.63;89.83
7200;BME280;3641;49.082;8.200;2023-02-18T06:20:50;101164.69;;;10.59;89.79
7200;BME280;3641;49.082;8.200;2023-02-18T06:23:17;101168.50;;;10.74;89.24
7200;BME280;3641;49.082;8.200;2023-02-18T06:25:43;101170.69;;;10.70;89.32
7200;BME280;3641;49.082;8.200;2023-02-18T06:28:11;101154.53;;;10.77;88.97
7200;BME280;3641;49.082;8.200;2023-02-18T06:30:38;101164.19;;;10.63;89.47
7200;BME280;3641;49.082;8.200;2023-02-18T06:33:04;101170.34;;;10.65;89.67
7200;BME280;3641;49.082;8.200;2023-02-18T06:35:31;101167.25;;;10.60;89.42
7200;BME280;3641;49.082;8.200;2023-02-18T06:37:57;101169.81;;;10.62;90.02
7200;BME280;3641;49.082;8.200;2023-02-18T06:40:24;101170.16;;;10.59;89.54
7200;BME280;3641;49.082;8.200;2023-02-18T06:42:50;101163.88;;;10.66;89.29
7200;BME280;3641;49.082;8.200;2023-02-18T06:45:18;101159.94;;;10.69;88.79
7200;BME280;3641;49.082;8.200;2023-02-18T06:47:45;101163.13;;;10.56;89.23
7200;BME280;3641;49.082;8.200;2023-02-18T06:50:12;101160.78;;;10.61;89.09
7200;BME280;3641;49.082;8.200;2023-02-18T06:52:38;101147.81;;;10.63;88.70
7200;BME280;3641;49.082;8.200;2023-02-18T06:55:06;101145.25;;;10.62;89.16
7200;BME280;3641;49.082;8.200;2023-02-18T06:57:34;101144.91;;;10.57;89.33
7200;BME280;3641;49.082;8.200;2023-02-18T07:00:00;101147.31;;;10.68;88.97
7200;BME280;3641;49.082;8.200;2023-02-18T07:02:28;101143.53;;;10.69;88.83
7200;BME280;3641;49.082;8.200;2023-02-18T07:04:55;101143.03;;;10.65;88.83
7200;BME280;3641;49.082;8.200;2023-02-18T07:07:21;101138.41;;;10.58;89.55
7200;BME280;3641;49.082;8.200;2023-02-18T07:09:48;101134.16;;;10.63;88.53
7200;BME280;3641;49.082;8.200;2023-02-18T07:12:14;101128.88;;;10.62;88.93
7200;BME280;3641;49.082;8.200;2023-02-18T07:14:41;101118.13;;;10.68;88.06
7200;BME280;3641;49.082;8.200;2023-02-18T07:17:07;101125.31;;;10.69;89.04
7200;BME280;3641;49.082;8.200;2023-02-18T07:19:35;101125.16;;;10.71;87.79
7200;BME280;3641;49.082;8.200;2023-02-18T07:22:01;101107.72;;;10.72;87.65
7200;BME280;3641;49.082;8.200;2023-02-18T07:24:28;101116.25;;;10.69;87.44
7200;BME280;3641;49.082;8.200;2023-02-18T07:26:54;101105.03;;;10.80;87.55
7200;BME280;3641;49.082;8.200;2023-02-18T07:29:21;101113.72;;;10.84;87.31
7200;BME280;3641;49.082;8.200;2023-02-18T07:31:47;101109.44;;;10.89;86.40
7200;BME280;3641;49.082;8.200;2023-02-18T07:34:15;101108.59;;;10.81;86.44
7200;BME280;3641;49.082;8.200;2023-02-18T07:36:43;101110.00;;;10.93;86.47
7200;BME280;3641;49.082;8.200;2023-02-18T07:39:09;101112.38;;;10.96;85.36
7200;BME280;3641;49.082;8.200;2023-02-18T07:41:36;101106.94;;;10.96;84.71
7200;BME280;3641;49.082;8.200;2023-02-18T07:44:03;101111.88;;;11.09;83.83
7200;BME280;3641;49.082;8.200;2023-02-18T07:46:29;101098.72;;;11.13;83.69
7200;BME280;3641;49.082;8.200;2023-02-18T07:48:56;101113.41;;;11.12;84.12
7200;BME280;3641;49.082;8.200;2023-02-18T07:51:22;101119.22;;;11.08;84.41
7200;BME280;3641;49.082;8.200;2023-02-18T07:53:50;101104.03;;;11.14;84.88
7200;BME280;3641;49.082;8.200;2023-02-18T07:56:17;101105.22;;;11.12;83.35
7200;BME280;3641;49.082;8.200;2023-02-18T07:58:43;101107.09;;;11.27;82.06
7200;BME280;3641;49.082;8.200;2023-02-18T08:01:11;101104.69;;;11.24;82.59
7200;BME280;3641;49.082;8.200;2023-02-18T08:03:39;101100.44;;;11.30;82.41
7200;BME280;3641;49.082;8.200;2023-02-18T08:06:07;101097.69;;;11.38;81.23
7200;BME280;3641;49.082;8.200;2023-02-18T08:08:34;101093.78;;;11.41;81.24
7200;BME280;3641;49.082;8.200;2023-02-18T08:11:02;101096.31;;;11.51;81.89
7200;BME280;3641;49.082;8.200;2023-02-18T08:13:31;101091.34;;;11.62;80.29
7200;BME280;3641;49.082;8.200;2023-02-18T08:15:57;101104.50;;;11.59;80.36
7200;BME280;3641;49.082;8.200;2023-02-18T08:18:25;101109.63;;;11.62;80.48
7200;BME280;3641;49.082;8.200;2023-02-18T08:20:52;101098.53;;;11.63;81.00
7200;BME280;3641;49.082;8.200;2023-02-18T08:23:20;101085.03;;;11.62;80.26
7200;BME280;3641;49.082;8.200;2023-02-18T08:25:48;101085.50;;;11.66;80.07
7200;BME280;3641;49.082;8.200;2023-02-18T08:28:17;101081.06;;;11.64;80.29
7200;BME280;3641;49.082;8.200;2023-02-18T08:30:44;101080.72;;;11.68;79.87
7200;BME280;3641;49.082;8.200;2023-02-18T08:33:11;101078.69;;;11.70;79.57
7200;BME280;3641;49.082;8.200;2023-02-18T08:35:37;101085.31;;;11.75;80.05
7200;BME280;3641;49.082;8.200;2023-02-18T08:38:04;101088.72;;;11.77;79.81
7200;BME280;3641;49.082;8.200;2023-02-18T08:40:30;101097.78;;;11.86;79.25
7200;BME280;3641;49.082;8.200;2023-02-18T08:42:57;101095.72;;;11.88;80.64
7200;BME280;3641;49.082;8.200;2023-02-18T08:45:25;101086.84;;;11.86;79.82
7200;BME280;3641;49.082;8.200;2023-02-18T08:47:51;101092.97;;;11.96;80.27
7200;BME280;3641;49.082;8.200;2023-02-18T08:50:18;101115.03;;;11.95;80.22
7200;BME280;3641;49.082;8.200;2023-02-18T08:52:45;101092.13;;;11.96;80.33
7200;BME280;3641;49.082;8.200;2023-02-18T08:55:12;101096.72;;;12.04;80.21
7200;BME280;3641;49.082;8.200;2023-02-18T08:57:38;101088.19;;;11.98;80.68
7200;BME280;3641;49.082;8.200;2023-02-18T09:00:06;101087.69;;;12.03;80.61
7200;BME280;3641;49.082;8.200;2023-02-18T09:02:34;101080.66;;;12.01;80.33
7200;BME280;3641;49.082;8.200;2023-02-18T09:05:00;101087.69;;;12.03;79.91
7200;BME280;3641;49.082;8.200;2023-02-18T09:07:27;101088.16;;;12.07;80.28
7200;BME280;3641;49.082;8.200;2023-02-18T09:09:54;101067.13;;;12.07;80.28
7200;BME280;3641;49.082;8.200;2023-02-18T09:12:20;101104.09;;;12.03;80.09
7200;BME280;3641;49.082;8.200;2023-02-18T09:14:47;101093.31;;;12.02;79.97
7200;BME280;3641;49.082;8.200;2023-02-18T09:17:14;101100.28;;;12.12;80.33
7200;BME280;3641;49.082;8.200;2023-02-18T09:19:41;101079.44;;;12.11;79.32
7200;BME280;3641;49.082;8.200;2023-02-18T09:22:08;101095.16;;;12.17;79.41
7200;BME280;3641;49.082;8.200;2023-02-18T09:24:35;101098.75;;;12.10;78.51
7200;BME280;3641;49.082;8.200;2023-02-18T09:27:02;101082.97;;;12.20;77.41
7200;BME280;3641;49.082;8.200;2023-02-18T09:29:29;101077.13;;;12.23;78.04
7200;BME280;3641;49.082;8.200;2023-02-18T09:31:59;101087.44;;;12.21;77.73
7200;BME280;3641;49.082;8.200;2023-02-18T09:34:25;101067.78;;;12.17;77.23
7200;BME280;3641;49.082;8.200;2023-02-18T09:36:53;101074.28;;;12.16;77.02
7200;BME280;3641;49.082;8.200;2023-02-18T09:39:20;101059.22;;;12.21;77.75
7200;BME280;3641;49.082;8.200;2023-02-18T09:41:47;101057.84;;;12.16;76.11
7200;BME280;3641;49.082;8.200;2023-02-18T09:44:17;101061.25;;;12.18;77.35
7200;BME280;3641;49.082;8.200;2023-02-18T09:46:49;101053.22;;;12.17;77.34
7200;BME280;3641;49.082;8.200;2023-02-18T09:49:19;101069.97;;;12.22;76.89
7200;BME280;3641;49.082;8.200;2023-02-18T09:51:46;101087.59;;;12.20;77.11
7200;BME280;3641;49.082;8.200;2023-02-18T09:54:16;101082.31;;;12.18;77.10
7200;BME280;3641;49.082;8.200;2023-02-18T09:56:44;101086.41;;;12.22;78.13
7200;BME280;3641;49.082;8.200;2023-02-18T09:59:15;101097.00;;;12.17;77.85
7200;BME280;3641;49.082;8.200;2023-02-18T10:01:43;101097.72;;;12.19;78.67
7200;BME280;3641;49.082;8.200;2023-02-18T10:04:14;101108.31;;;12.22;79.17
7200;BME280;3641;49.082;8.200;2023-02-18T10:06:43;101121.13;;;12.22;79.20
7200;BME280;3641;49.082;8.200;2023-02-18T10:09:17;101120.41;;;12.28;79.22
7200;BME280;3641;49.082;8.200;2023-02-18T10:11:47;101117.22;;;12.47;78.15
7200;BME280;3641;49.082;8.200;2023-02-18T10:14:14;101112.66;;;12.40;78.62
7200;BME280;3641;49.082;8.200;2023-02-18T10:16:42;101109.91;;;12.40;80.09
7200;BME280;3641;49.082;8.200;2023-02-18T10:19:20;101115.38;;;12.40;78.01
7200;BME280;3641;49.082;8.200;2023-02-18T10:21:47;101113.69;;;12.39;77.82
7200;BME280;3641;49.082;8.200;2023-02-18T10:24:21;101112.50;;;12.33;77.27
7200;BME280;3641;49.082;8.200;2023-02-18T10:26:51;101119.34;;;12.37;77.88
7200;BME280;3641;49.082;8.200;2023-02-18T10:29:19;101098.16;;;12.31;77.31
7200;BME280;3641;49.082;8.200;2023-02-18T10:31:52;101106.00;;;12.34;76.73
7200;BME280;3641;49.082;8.200;2023-02-18T10:34:30;101086.50;;;12.37;76.72
7200;BME280;3641;49.082;8.200;2023-02-18T10:37:06;101089.53;;;12.42;75.42
7200;BME280;3641;49.082;8.200;2023-02-18T10:39:45;101103.38;;;12.49;75.33
7200;BME280;3641;49.082;8.200;2023-02-18T10:42:22;101078.91;;;12.47;74.32
7200;BME280;3641;49.082;8.200;2023-02-18T10:44:58;101092.94;;;12.52;74.98
7200;BME280;3641;49.082;8.200;2023-02-18T10:47:36;101092.06;;;12.52;74.62
7200;BME280;3641;49.082;8.200;2023-02-18T10:50:08;101075.75;;;12.59;74.66
7200;BME280;3641;49.082;8.200;2023-02-18T10:52:40;101088.94;;;12.55;74.70
7200;BME280;3641;49.082;8.200;2023-02-18T10:55:10;101071.38;;;12.49;74.71
7200;BME280;3641;49.082;8.200;2023-02-18T10:57:48;101106.97;;;12.49;75.52
7200;BME280;3641;49.082;8.200;2023-02-18T11:00:17;101083.53;;;12.47;75.45
7200;BME280;3641;49.082;8.200;2023-02-18T11:02:45;101089.31;;;12.52;75.44
7200;BME280;3641;49.082;8.200;2023-02-18T11:05:18;101084.72;;;12.52;75.74
7200;BME280;3641;49.082;8.200;2023-02-18T11:07:49;101086.03;;;12.57;75.56
7200;BME280;3641;49.082;8.200;2023-02-18T11:10:21;101085.19;;;12.56;76.43
7200;BME280;3641;49.082;8.200;2023-02-18T11:12:50;101087.56;;;12.59;75.67
7200;BME280;3641;49.082;8.200;2023-02-18T11:15:21;101091.81;;;12.62;75.70
7200;BME280;3641;49.082;8.200;2023-02-18T11:17:50;101095.91;;;12.66;75.82
7200;BME280;3641;49.082;8.200;2023-02-18T11:20:27;101091.75;;;12.70;75.76
7200;BME280;3641;49.082;8.200;2023-02-18T11:23:14;101092.50;;;12.64;76.15
7200;BME280;3641;49.082;8.200;2023-02-18T11:25:56;101086.84;;;12.65;76.90
7200;BME280;3641;49.082;8.200;2023-02-18T11:28:36;101095.59;;;12.61;76.70
7200;BME280;3641;49.082;8.200;2023-02-18T11:31:06;101097.00;;;12.57;76.59
7200;BME280;3641;49.082;8.200;2023-02-18T11:33:34;101089.59;;;12.65;77.72
7200;BME280;3641;49.082;8.200;2023-02-18T11:36:08;101098.00;;;12.56;77.29
7200;BME280;3641;49.082;8.200;2023-02-18T11:38:43;101098.00;;;12.56;77.13
7200;BME280;3641;49.082;8.200;2023-02-18T11:41:14;101094.44;;;12.55;78.03
7200;BME280;3641;49.082;8.200;2023-02-18T11:43:41;101096.50;;;12.53;77.58
7200;BME280;3641;49.082;8.200;2023-02-18T11:46:10;101081.19;;;12.67;78.18
7200;BME280;3641;49.082;8.200;2023-02-18T11:48:37;101085.63;;;12.68;78.01
7200;BME280;3641;49.082;8.200;2023-02-18T11:51:04;101077.75;;;12.65;77.96
7200;BME280;3641;49.082;8.200;2023-02-18T11:53:32;101088.53;;;12.66;78.15
7200;BME280;3641;49.082;8.200;2023-02-18T11:56:00;101084.59;;;12.69;77.93
7200;BME280;3641;49.082;8.200;2023-02-18T11:58:35;101078.81;;;12.64;76.84
7200;BME280;3641;49.082;8.200;2023-02-18T12:01:04;101079.47;;;12.66;77.11
7200;BME280;3641;49.082;8.200;2023-02-18T12:03:37;101084.28;;;12.64;77.52
7200;BME280;3641;49.082;8.200;2023-02-18T12:06:14;101075.03;;;12.65;77.58
7200;BME280;3641;49.082;8.200;2023-02-18T12:08:47;101074.00;;;12.66;77.19
7200;BME280;3641;49.082;8.200;2023-02-18T12:11:21;101079.59;;;12.72;77.68
7200;BME280;3641;49.082;8.200;2023-02-18T12:13:55;101060.97;;;12.68;76.84
7200;BME280;3641;49.082;8.200;2023-02-18T12:16:26;101067.50;;;12.67;76.47
7200;BME280;3641;49.082;8.200;2023-02-18T12:19:26;101063.03;;;12.66;76.06
7200;BME280;3641;49.082;8.200;2023-02-18T12:22:04;101066.50;;;12.60;75.73
7200;BME280;3641;49.082;8.200;2023-02-18T12:24:47;101065.47;;;12.61;75.28
7200;BME280;3641;49.082;8.200;2023-02-18T12:27:25;101058.59;;;12.65;76.13
7200;BME280;3641;49.082;8.200;2023-02-18T12:30:08;101060.53;;;12.56;73.49
7200;BME280;3641;49.082;8.200;2023-02-18T12:32:44;101049.88;;;12.61;74.60
7200;BME280;3641;49.082;8.200;2023-02-18T12:35:29;101060.66;;;12.63;73.89
7200;BME280;3641;49.082;8.200;2023-02-18T12:38:13;101061.75;;;12.53;70.52
7200;BME280;3641;49.082;8.200;2023-02-18T12:41:04;101056.94;;;12.56;71.26
7200;BME280;3641;49.082;8.200;2023-02-18T12:43:39;101057.50;;;12.51;71.50
7200;BME280;3641;49.082;8.200;2023-02-18T12:46:31;101060.25;;;12.51;70.20
7200;BME280;3641;49.082;8.200;2023-02-18T12:49:37;101063.81;;;12.51;71.20
7200;BME280;3641;49.082;8.200;2023-02-18T12:52:17;101064.31;;;12.55;70.45
7200;BME280;3641;49.082;8.200;2023-02-18T12:55:15;101049.59;;;12.56;69.55
7200;BME280;3641;49.082;8.200;2023-02-18T12:57:47;101037.66;;;12.72;68.70
7200;BME280;3641;49.082;8.200;2023-02-18T13:00:37;101032.06;;;12.88;69.21
7200;BME280;3641;49.082;8.200;2023-02-18T13:03:26;101033.16;;;13.02;67.40
7200;BME280;3641;49.082;8.200;2023-02-18T13:06:05;101030.06;;;13.20;66.62
7200;BME280;3641;49.082;8.200;2023-02-18T13:08:43;101019.38;;;13.25;67.61
7200;BME280;3641;49.082;8.200;2023-02-18T13:11:25;101026.53;;;13.35;66.94
7200;BME280;3641;49.082;8.200;2023-02-18T13:14:03;101021.53;;;13.53;64.74
7200;BME280;3641;49.082;8.200;2023-02-18T13:16:33;101025.13;;;13.69;63.44
7200;BME280;3641;49.082;8.200;2023-02-18T13:19:08;101009.25;;;13.79;62.62
7200;BME280;3641;49.082;8.200;2023-02-18T13:21:39;101006.75;;;13.99;59.78
7200;BME280;3641;49.082;8.200;2023-02-18T13:24:12;100996.81;;;13.98;60.85
7200;BME280;3641;49.082;8.200;2023-02-18T13:26:40;100999.25;;;14.08;61.11
7200;BME280;3641;49.082;8.200;2023-02-18T13:29:19;101010.63;;;14.05;61.77